Shreveport Regional Airport
KSHV : now visible

Airfield :











YOU CAN JOIN US ON...

 
LOGIN :

Register | Disclaimer

   EN    FR    IT 

 









Legend :    VFR   Marginal VFR   IFR   Intensive IFR   Very Intensive IFR
Visi :
Ceiling :
>= 8 km
>= 3000ft
5 to 8 km
1000 to 3000 ft
1500m to 5 km
500 to 1000 ft
800 to 1500m
200 to 500 ft
< 800m
< 200 ft
Symbols :   Thunderstorms  Fog  Heavy snow  Heavy precipitations  Wind > 20 kt






- Airport Elevation : 258 ft
- IATA code : SHV


KSHV - Shreveport Regional

CURRENT METAR :
  • 202156Z 18010KT 10SM FEW050 SCT250 34/22 A2978 RMK AO2 SLP080 T03440217

EXPIRED METARs :
  • 202056Z 18013KT 10SM SCT050 SCT290 34/22 A2980 RMK AO2 SLP085 T03440222 56015
  • 201956Z 19011KT 10SM FEW047 SCT060 34/21 A2981 RMK AO2 SLP090 T03390211

TAF KSHV
Valid from the 20 at 18:00 until the 21 at 18:00 UTC


201740Z 2018/2118 18009KT P6SM SCT035
FM210100 20010KT P6SM FEW050
FM210900 19008KT P6SM SCT015
FM211500 19009KT P6SM BKN040
KZFW FIR / North America



MET'MAP, your aeronautical weather chart ! - Copyright ORBIFLY December 2007 - Disclaimer

ORBIFLY MET'MAP TEAM :

Programming & Development : Alexandra Zaïnal
Concept & original design : Baudouin d'Aumeries
Assistance for programming : Marc-Olivier Méhu
Technical & hardware support : Manuel Goepfert

Contact : metmap@orbifly.com




SOURCES & CREDITS :

   NOAA       Earth
Advisory